sensor_id;sensor_type;location;lat;lon;timestamp;P1;durP1;ratioP1;P2;durP2;ratioP2
25341;SDS011;13298;48.792;9.154;2023-04-06T00:01:40;9.02;;;5.20;;
25341;SDS011;13298;48.792;9.154;2023-04-06T00:04:06;9.88;;;5.72;;
25341;SDS011;13298;48.792;9.154;2023-04-06T00:06:32;11.80;;;5.85;;
25341;SDS011;13298;48.792;9.154;2023-04-06T00:08:59;9.23;;;6.22;;
25341;SDS011;13298;48.792;9.154;2023-04-06T00:11:25;9.60;;;5.63;;
25341;SDS011;13298;48.792;9.154;2023-04-06T00:13:51;10.13;;;5.82;;
25341;SDS011;13298;48.792;9.154;2023-04-06T00:16:17;10.82;;;5.65;;
25341;SDS011;13298;48.792;9.154;2023-04-06T00:18:43;10.23;;;5.55;;
25341;SDS011;13298;48.792;9.154;2023-04-06T00:21:11;8.50;;;5.25;;
25341;SDS011;13298;48.792;9.154;2023-04-06T00:23:38;10.05;;;5.63;;
25341;SDS011;13298;48.792;9.154;2023-04-06T00:26:04;12.73;;;6.13;;
25341;SDS011;13298;48.792;9.154;2023-04-06T00:28:30;12.63;;;5.88;;
25341;SDS011;13298;48.792;9.154;2023-04-06T00:30:55;8.30;;;5.55;;
25341;SDS011;13298;48.792;9.154;2023-04-06T00:33:22;9.43;;;5.20;;
25341;SDS011;13298;48.792;9.154;2023-04-06T00:35:48;8.40;;;5.03;;
25341;SDS011;13298;48.792;9.154;2023-04-06T00:38:14;7.50;;;5.50;;
25341;SDS011;13298;48.792;9.154;2023-04-06T00:40:40;11.25;;;5.72;;
25341;SDS011;13298;48.792;9.154;2023-04-06T00:43:07;7.90;;;5.00;;
25341;SDS011;13298;48.792;9.154;2023-04-06T00:45:34;8.30;;;5.38;;
25341;SDS011;13298;48.792;9.154;2023-04-06T00:48:00;8.90;;;5.30;;
25341;SDS011;13298;48.792;9.154;2023-04-06T00:50:26;8.20;;;5.03;;
25341;SDS011;13298;48.792;9.154;2023-04-06T00:52:53;6.15;;;4.50;;
25341;SDS011;13298;48.792;9.154;2023-04-06T00:55:19;9.43;;;5.15;;
25341;SDS011;13298;48.792;9.154;2023-04-06T00:57:45;8.45;;;5.20;;
25341;SDS011;13298;48.792;9.154;2023-04-06T01:00:11;7.65;;;5.35;;
25341;SDS011;13298;48.792;9.154;2023-04-06T01:02:37;9.20;;;5.25;;
25341;SDS011;13298;48.792;9.154;2023-04-06T01:05:03;9.93;;;5.43;;
25341;SDS011;13298;48.792;9.154;2023-04-06T01:07:30;9.60;;;6.22;;
25341;SDS011;13298;48.792;9.154;2023-04-06T01:09:55;10.63;;;5.55;;
25341;SDS011;13298;48.792;9.154;2023-04-06T01:12:21;12.88;;;5.28;;
25341;SDS011;13298;48.792;9.154;2023-04-06T01:14:47;12.60;;;5.50;;
25341;SDS011;13298;48.792;9.154;2023-04-06T01:17:13;7.88;;;5.13;;
25341;SDS011;13298;48.792;9.154;2023-04-06T01:19:38;8.18;;;5.07;;
25341;SDS011;13298;48.792;9.154;2023-04-06T01:22:05;10.95;;;5.72;;
25341;SDS011;13298;48.792;9.154;2023-04-06T01:24:31;8.55;;;4.88;;
25341;SDS011;13298;48.792;9.154;2023-04-06T01:26:57;10.07;;;5.38;;
25341;SDS011;13298;48.792;9.154;2023-04-06T01:29:23;9.93;;;5.65;;
25341;SDS011;13298;48.792;9.154;2023-04-06T01:31:49;11.15;;;6.22;;
25341;SDS011;13298;48.792;9.154;2023-04-06T01:34:15;8.88;;;5.88;;
25341;SDS011;13298;48.792;9.154;2023-04-06T01:36:41;10.82;;;6.07;;
25341;SDS011;13298;48.792;9.154;2023-04-06T01:39:07;11.60;;;6.05;;
25341;SDS011;13298;48.792;9.154;2023-04-06T01:41:33;10.77;;;6.47;;
25341;SDS011;13298;48.792;9.154;2023-04-06T01:43:59;9.98;;;6.60;;
25341;SDS011;13298;48.792;9.154;2023-04-06T01:46:25;11.48;;;6.50;;
25341;SDS011;13298;48.792;9.154;2023-04-06T01:48:51;11.32;;;6.50;;
25341;SDS011;13298;48.792;9.154;2023-04-06T01:51:16;9.93;;;6.53;;
25341;SDS011;13298;48.792;9.154;2023-04-06T01:53:42;13.18;;;7.03;;
25341;SDS011;13298;48.792;9.154;2023-04-06T01:56:08;13.00;;;6.70;;
25341;SDS011;13298;48.792;9.154;2023-04-06T01:58:34;10.02;;;6.60;;
25341;SDS011;13298;48.792;9.154;2023-04-06T02:01:00;11.13;;;6.65;;
25341;SDS011;13298;48.792;9.154;2023-04-06T02:03:25;10.70;;;6.93;;
25341;SDS011;13298;48.792;9.154;2023-04-06T02:05:51;11.30;;;6.53;;
25341;SDS011;13298;48.792;9.154;2023-04-06T02:08:17;11.63;;;7.47;;
25341;SDS011;13298;48.792;9.154;2023-04-06T02:10:42;10.45;;;6.68;;
25341;SDS011;13298;48.792;9.154;2023-04-06T02:13:08;13.40;;;6.25;;
25341;SDS011;13298;48.792;9.154;2023-04-06T02:15:34;9.40;;;6.40;;
25341;SDS011;13298;48.792;9.154;2023-04-06T02:17:59;11.77;;;6.82;;
25341;SDS011;13298;48.792;9.154;2023-04-06T02:20:25;12.15;;;6.75;;
25341;SDS011;13298;48.792;9.154;2023-04-06T02:22:51;9.75;;;6.25;;
25341;SDS011;13298;48.792;9.154;2023-04-06T02:25:17;12.10;;;7.30;;
25341;SDS011;13298;48.792;9.154;2023-04-06T02:27:42;10.85;;;6.68;;
25341;SDS011;13298;48.792;9.154;2023-04-06T02:30:08;13.02;;;7.00;;
25341;SDS011;13298;48.792;9.154;2023-04-06T02:32:35;11.63;;;6.65;;
25341;SDS011;13298;48.792;9.154;2023-04-06T02:35:00;10.07;;;6.40;;
25341;SDS011;13298;48.792;9.154;2023-04-06T02:37:26;12.70;;;6.78;;
25341;SDS011;13298;48.792;9.154;2023-04-06T02:39:52;13.20;;;6.68;;
25341;SDS011;13298;48.792;9.154;2023-04-06T02:42:17;12.15;;;6.93;;
25341;SDS011;13298;48.792;9.154;2023-04-06T02:44:43;12.48;;;7.10;;
25341;SDS011;13298;48.792;9.154;2023-04-06T02:47:09;11.13;;;6.68;;
25341;SDS011;13298;48.792;9.154;2023-04-06T02:49:35;11.50;;;6.70;;
25341;SDS011;13298;48.792;9.154;2023-04-06T02:52:01;12.07;;;7.00;;
25341;SDS011;13298;48.792;9.154;2023-04-06T02:54:28;10.25;;;6.68;;
25341;SDS011;13298;48.792;9.154;2023-04-06T02:56:53;11.63;;;6.93;;
25341;SDS011;13298;48.792;9.154;2023-04-06T02:59:19;10.82;;;6.72;;
25341;SDS011;13298;48.792;9.154;2023-04-06T03:01:45;9.45;;;6.53;;
25341;SDS011;13298;48.792;9.154;2023-04-06T03:04:10;11.50;;;6.85;;
25341;SDS011;13298;48.792;9.154;2023-04-06T03:06:36;11.18;;;6.68;;
25341;SDS011;13298;48.792;9.154;2023-04-06T03:09:02;10.63;;;6.57;;
25341;SDS011;13298;48.792;9.154;2023-04-06T03:11:28;10.40;;;6.38;;
25341;SDS011;13298;48.792;9.154;2023-04-06T03:13:54;10.95;;;7.10;;
25341;SDS011;13298;48.792;9.154;2023-04-06T03:16:20;9.48;;;7.07;;
25341;SDS011;13298;48.792;9.154;2023-04-06T03:18:45;11.32;;;6.38;;
25341;SDS011;13298;48.792;9.154;2023-04-06T03:21:12;13.15;;;6.82;;
25341;SDS011;13298;48.792;9.154;2023-04-06T03:23:41;10.18;;;6.22;;
25341;SDS011;13298;48.792;9.154;2023-04-06T03:26:07;10.32;;;6.30;;
25341;SDS011;13298;48.792;9.154;2023-04-06T03:28:33;11.18;;;6.55;;
25341;SDS011;13298;48.792;9.154;2023-04-06T03:30:59;10.40;;;6.45;;
25341;SDS011;13298;48.792;9.154;2023-04-06T03:33:25;14.32;;;6.93;;
25341;SDS011;13298;48.792;9.154;2023-04-06T03:35:53;9.75;;;6.30;;
25341;SDS011;13298;48.792;9.154;2023-04-06T03:38:19;11.63;;;6.57;;
25341;SDS011;13298;48.792;9.154;2023-04-06T03:40:45;10.95;;;6.53;;
25341;SDS011;13298;48.792;9.154;2023-04-06T03:43:11;11.52;;;7.32;;
25341;SDS011;13298;48.792;9.154;2023-04-06T03:45:37;12.13;;;6.75;;
25341;SDS011;13298;48.792;9.154;2023-04-06T03:48:02;12.30;;;6.88;;
25341;SDS011;13298;48.792;9.154;2023-04-06T03:50:29;10.82;;;7.15;;
25341;SDS011;13298;48.792;9.154;2023-04-06T03:52:55;9.68;;;7.15;;
25341;SDS011;13298;48.792;9.154;2023-04-06T03:55:21;12.98;;;7.57;;
25341;SDS011;13298;48.792;9.154;2023-04-06T03:57:47;10.93;;;7.10;;
25341;SDS011;13298;48.792;9.154;2023-04-06T04:00:12;11.20;;;6.95;;
25341;SDS011;13298;48.792;9.154;2023-04-06T04:02:38;11.50;;;6.72;;
25341;SDS011;13298;48.792;9.154;2023-04-06T04:05:04;13.18;;;7.30;;
25341;SDS011;13298;48.792;9.154;2023-04-06T04:07:31;11.55;;;6.55;;
25341;SDS011;13298;48.792;9.154;2023-04-06T04:09:56;12.30;;;6.93;;
25341;SDS011;13298;48.792;9.154;2023-04-06T04:12:22;10.65;;;6.78;;
25341;SDS011;13298;48.792;9.154;2023-04-06T04:14:48;10.60;;;6.25;;
25341;SDS011;13298;48.792;9.154;2023-04-06T04:17:13;12.38;;;7.18;;
25341;SDS011;13298;48.792;9.154;2023-04-06T04:19:39;9.65;;;6.85;;
25341;SDS011;13298;48.792;9.154;2023-04-06T04:22:05;10.90;;;6.97;;
25341;SDS011;13298;48.792;9.154;2023-04-06T04:24:31;11.20;;;6.35;;
25341;SDS011;13298;48.792;9.154;2023-04-06T04:26:58;11.55;;;6.72;;
25341;SDS011;13298;48.792;9.154;2023-04-06T04:29:25;11.48;;;6.28;;
25341;SDS011;13298;48.792;9.154;2023-04-06T04:31:51;11.88;;;7.47;;
25341;SDS011;13298;48.792;9.154;2023-04-06T04:34:17;10.52;;;6.18;;
25341;SDS011;13298;48.792;9.154;2023-04-06T04:36:45;11.23;;;6.93;;
25341;SDS011;13298;48.792;9.154;2023-04-06T04:39:11;11.02;;;7.03;;
25341;SDS011;13298;48.792;9.154;2023-04-06T04:41:37;13.43;;;6.88;;
25341;SDS011;13298;48.792;9.154;2023-04-06T04:44:03;11.45;;;6.60;;
25341;SDS011;13298;48.792;9.154;2023-04-06T04:46:28;11.50;;;6.97;;
25341;SDS011;13298;48.792;9.154;2023-04-06T04:48:54;10.55;;;6.85;;
25341;SDS011;13298;48.792;9.154;2023-04-06T04:51:20;10.15;;;6.22;;
25341;SDS011;13298;48.792;9.154;2023-04-06T04:53:46;11.10;;;6.70;;
25341;SDS011;13298;48.792;9.154;2023-04-06T04:56:11;14.07;;;6.80;;
25341;SDS011;13298;48.792;9.154;2023-04-06T04:58:37;13.00;;;7.13;;
25341;SDS011;13298;48.792;9.154;2023-04-06T05:01:03;9.02;;;6.80;;
25341;SDS011;13298;48.792;9.154;2023-04-06T05:03:28;9.98;;;6.40;;
25341;SDS011;13298;48.792;9.154;2023-04-06T05:05:54;9.20;;;6.60;;
25341;SDS011;13298;48.792;9.154;2023-04-06T05:08:20;11.30;;;6.72;;
25341;SDS011;13298;48.792;9.154;2023-04-06T05:10:46;10.63;;;6.85;;
25341;SDS011;13298;48.792;9.154;2023-04-06T05:13:13;13.45;;;6.38;;
25341;SDS011;13298;48.792;9.154;2023-04-06T05:15:39;11.85;;;7.10;;
25341;SDS011;13298;48.792;9.154;2023-04-06T05:18:05;12.52;;;7.20;;
25341;SDS011;13298;48.792;9.154;2023-04-06T05:20:35;13.15;;;7.28;;
25341;SDS011;13298;48.792;9.154;2023-04-06T05:23:01;13.90;;;7.57;;
25341;SDS011;13298;48.792;9.154;2023-04-06T05:25:27;12.00;;;7.32;;
25341;SDS011;13298;48.792;9.154;2023-04-06T05:27:53;12.70;;;7.47;;
25341;SDS011;13298;48.792;9.154;2023-04-06T05:30:19;12.90;;;7.30;;
25341;SDS011;13298;48.792;9.154;2023-04-06T05:32:46;13.73;;;7.50;;
25341;SDS011;13298;48.792;9.154;2023-04-06T05:35:11;11.63;;;6.78;;
25341;SDS011;13298;48.792;9.154;2023-04-06T05:37:38;11.55;;;6.95;;
25341;SDS011;13298;48.792;9.154;2023-04-06T05:40:04;12.18;;;6.82;;
25341;SDS011;13298;48.792;9.154;2023-04-06T05:42:37;11.30;;;7.47;;
25341;SDS011;13298;48.792;9.154;2023-04-06T05:45:04;11.73;;;6.75;;
25341;SDS011;13298;48.792;9.154;2023-04-06T05:47:31;12.10;;;6.90;;
25341;SDS011;13298;48.792;9.154;2023-04-06T05:49:57;11.15;;;7.10;;
25341;SDS011;13298;48.792;9.154;2023-04-06T05:52:23;13.23;;;7.22;;
25341;SDS011;13298;48.792;9.154;2023-04-06T05:54:48;12.75;;;7.15;;
25341;SDS011;13298;48.792;9.154;2023-04-06T05:57:15;11.98;;;6.93;;
25341;SDS011;13298;48.792;9.154;2023-04-06T05:59:41;14.30;;;7.72;;
25341;SDS011;13298;48.792;9.154;2023-04-06T06:02:07;10.00;;;6.80;;
25341;SDS011;13298;48.792;9.154;2023-04-06T06:04:33;10.43;;;6.75;;
25341;SDS011;13298;48.792;9.154;2023-04-06T06:06:58;13.40;;;7.10;;
25341;SDS011;13298;48.792;9.154;2023-04-06T06:09:25;11.65;;;7.25;;
25341;SDS011;13298;48.792;9.154;2023-04-06T06:11:51;12.02;;;7.45;;
25341;SDS011;13298;48.792;9.154;2023-04-06T06:14:16;11.50;;;6.78;;
25341;SDS011;13298;48.792;9.154;2023-04-06T06:16:42;9.77;;;6.78;;
25341;SDS011;13298;48.792;9.154;2023-04-06T06:19:08;15.35;;;7.35;;
25341;SDS011;13298;48.792;9.154;2023-04-06T06:21:34;16.50;;;8.43;;
25341;SDS011;13298;48.792;9.154;2023-04-06T06:24:00;17.27;;;7.85;;
25341;SDS011;13298;48.792;9.154;2023-04-06T06:26:26;14.32;;;8.45;;
25341;SDS011;13298;48.792;9.154;2023-04-06T06:28:51;16.27;;;8.70;;
25341;SDS011;13298;48.792;9.154;2023-04-06T06:31:17;12.63;;;8.57;;
25341;SDS011;13298;48.792;9.154;2023-04-06T06:33:45;12.43;;;7.85;;
25341;SDS011;13298;48.792;9.154;2023-04-06T06:36:12;15.68;;;8.40;;
25341;SDS011;13298;48.792;9.154;2023-04-06T06:38:38;13.88;;;8.13;;
25341;SDS011;13298;48.792;9.154;2023-04-06T06:41:04;13.20;;;7.35;;
25341;SDS011;13298;48.792;9.154;2023-04-06T06:43:29;15.18;;;7.32;;
25341;SDS011;13298;48.792;9.154;2023-04-06T06:45:55;16.73;;;8.13;;
25341;SDS011;13298;48.792;9.154;2023-04-06T06:48:21;14.45;;;7.80;;
25341;SDS011;13298;48.792;9.154;2023-04-06T06:50:47;11.13;;;7.40;;
25341;SDS011;13298;48.792;9.154;2023-04-06T06:53:13;11.52;;;7.35;;
25341;SDS011;13298;48.792;9.154;2023-04-06T06:55:39;12.07;;;7.30;;
25341;SDS011;13298;48.792;9.154;2023-04-06T06:58:05;13.95;;;7.72;;
25341;SDS011;13298;48.792;9.154;2023-04-06T07:00:31;12.38;;;7.30;;
25341;SDS011;13298;48.792;9.154;2023-04-06T07:02:57;11.65;;;7.90;;
25341;SDS011;13298;48.792;9.154;2023-04-06T07:05:23;14.25;;;7.82;;
25341;SDS011;13298;48.792;9.154;2023-04-06T07:07:49;13.30;;;7.90;;
25341;SDS011;13298;48.792;9.154;2023-04-06T07:10:15;13.00;;;8.00;;
25341;SDS011;13298;48.792;9.154;2023-04-06T07:12:40;15.43;;;7.68;;
25341;SDS011;13298;48.792;9.154;2023-04-06T07:15:06;14.70;;;7.43;;
25341;SDS011;13298;48.792;9.154;2023-04-06T07:17:33;13.90;;;8.30;;
25341;SDS011;13298;48.792;9.154;2023-04-06T07:19:59;12.50;;;7.82;;
25341;SDS011;13298;48.792;9.154;2023-04-06T07:22:24;15.65;;;8.07;;
25341;SDS011;13298;48.792;9.154;2023-04-06T07:24:50;15.75;;;8.13;;
25341;SDS011;13298;48.792;9.154;2023-04-06T07:27:16;12.88;;;7.65;;
25341;SDS011;13298;48.792;9.154;2023-04-06T07:29:42;13.05;;;7.82;;
25341;SDS011;13298;48.792;9.154;2023-04-06T07:32:08;11.63;;;7.82;;
25341;SDS011;13298;48.792;9.154;2023-04-06T07:34:33;14.30;;;9.05;;
25341;SDS011;13298;48.792;9.154;2023-04-06T07:36:59;15.43;;;8.30;;
25341;SDS011;13298;48.792;9.154;2023-04-06T07:39:25;14.98;;;8.48;;
25341;SDS011;13298;48.792;9.154;2023-04-06T07:41:51;11.35;;;7.32;;
25341;SDS011;13298;48.792;9.154;2023-04-06T07:44:17;12.65;;;8.70;;
25341;SDS011;13298;48.792;9.154;2023-04-06T07:46:43;11.52;;;7.60;;
25341;SDS011;13298;48.792;9.154;2023-04-06T07:49:09;17.55;;;7.65;;
25341;SDS011;13298;48.792;9.154;2023-04-06T07:51:37;11.93;;;7.45;;
25341;SDS011;13298;48.792;9.154;2023-04-06T07:54:04;13.68;;;7.65;;
25341;SDS011;13298;48.792;9.154;2023-04-06T07:56:30;14.38;;;8.43;;
25341;SDS011;13298;48.792;9.154;2023-04-06T07:58:56;13.05;;;7.43;;
25341;SDS011;13298;48.792;9.154;2023-04-06T08:01:22;13.85;;;7.38;;
25341;SDS011;13298;48.792;9.154;2023-04-06T08:03:49;12.10;;;8.15;;
25341;SDS011;13298;48.792;9.154;2023-04-06T08:06:15;16.83;;;9.85;;
25341;SDS011;13298;48.792;9.154;2023-04-06T08:08:41;14.25;;;8.70;;
25341;SDS011;13298;48.792;9.154;2023-04-06T08:11:07;14.40;;;7.63;;
25341;SDS011;13298;48.792;9.154;2023-04-06T08:13:33;16.30;;;8.55;;
25341;SDS011;13298;48.792;9.154;2023-04-06T08:16:05;12.77;;;8.00;;
25341;SDS011;13298;48.792;9.154;2023-04-06T08:18:31;19.15;;;8.45;;
25341;SDS011;13298;48.792;9.154;2023-04-06T08:20:57;12.30;;;8.65;;
25341;SDS011;13298;48.792;9.154;2023-04-06T08:23:22;14.25;;;8.57;;
25341;SDS011;13298;48.792;9.154;2023-04-06T08:25:48;16.23;;;9.07;;
25341;SDS011;13298;48.792;9.154;2023-04-06T08:28:14;15.30;;;7.82;;
25341;SDS011;13298;48.792;9.154;2023-04-06T08:30:41;15.75;;;8.38;;
25341;SDS011;13298;48.792;9.154;2023-04-06T08:33:07;15.88;;;8.25;;
25341;SDS011;13298;48.792;9.154;2023-04-06T08:35:34;17.35;;;8.70;;
25341;SDS011;13298;48.792;9.154;2023-04-06T08:37:59;16.60;;;8.52;;
25341;SDS011;13298;48.792;9.154;2023-04-06T08:40:25;12.02;;;7.82;;
25341;SDS011;13298;48.792;9.154;2023-04-06T08:42:54;12.02;;;7.65;;
25341;SDS011;13298;48.792;9.154;2023-04-06T08:45:21;12.32;;;8.07;;
25341;SDS011;13298;48.792;9.154;2023-04-06T08:47:51;19.42;;;8.98;;
25341;SDS011;13298;48.792;9.154;2023-04-06T08:50:17;12.77;;;8.05;;
25341;SDS011;13298;48.792;9.154;2023-04-06T08:52:45;14.18;;;9.05;;
25341;SDS011;13298;48.792;9.154;2023-04-06T08:55:13;18.10;;;8.55;;
25341;SDS011;13298;48.792;9.154;2023-04-06T08:57:39;17.55;;;9.18;;
25341;SDS011;13298;48.792;9.154;2023-04-06T09:00:06;11.55;;;8.07;;
25341;SDS011;13298;48.792;9.154;2023-04-06T09:02:37;16.25;;;9.00;;
25341;SDS011;13298;48.792;9.154;2023-04-06T09:05:08;18.23;;;9.10;;
25341;SDS011;13298;48.792;9.154;2023-04-06T09:07:35;15.85;;;8.30;;
25341;SDS011;13298;48.792;9.154;2023-04-06T09:10:02;12.77;;;8.30;;
25341;SDS011;13298;48.792;9.154;2023-04-06T09:12:29;15.75;;;9.35;;
25341;SDS011;13298;48.792;9.154;2023-04-06T09:14:57;12.75;;;7.88;;
25341;SDS011;13298;48.792;9.154;2023-04-06T09:17:25;15.38;;;8.38;;
25341;SDS011;13298;48.792;9.154;2023-04-06T09:19:53;12.60;;;6.95;;
25341;SDS011;13298;48.792;9.154;2023-04-06T09:22:19;12.35;;;7.70;;
25341;SDS011;13298;48.792;9.154;2023-04-06T09:24:46;12.30;;;7.95;;
25341;SDS011;13298;48.792;9.154;2023-04-06T09:27:29;12.90;;;8.25;;
25341;SDS011;13298;48.792;9.154;2023-04-06T09:30:07;13.65;;;8.98;;
25341;SDS011;13298;48.792;9.154;2023-04-06T09:32:45;16.42;;;8.50;;
25341;SDS011;13298;48.792;9.154;2023-04-06T09:35:13;11.88;;;7.78;;
25341;SDS011;13298;48.792;9.154;2023-04-06T09:37:39;14.98;;;9.13;;
25341;SDS011;13298;48.792;9.154;2023-04-06T09:40:05;13.10;;;7.88;;
25341;SDS011;13298;48.792;9.154;2023-04-06T09:42:32;15.88;;;8.45;;
25341;SDS011;13298;48.792;9.154;2023-04-06T09:44:59;12.23;;;7.40;;
25341;SDS011;13298;48.792;9.154;2023-04-06T09:47:26;13.65;;;8.45;;
25341;SDS011;13298;48.792;9.154;2023-04-06T09:49:55;14.13;;;8.35;;
25341;SDS011;13298;48.792;9.154;2023-04-06T09:52:27;14.63;;;8.38;;
25341;SDS011;13298;48.792;9.154;2023-04-06T09:55:03;13.20;;;8.23;;
25341;SDS011;13298;48.792;9.154;2023-04-06T10:00:21;16.65;;;7.60;;
25341;SDS011;13298;48.792;9.154;2023-04-06T10:03:07;12.85;;;6.72;;
25341;SDS011;13298;48.792;9.154;2023-04-06T10:06:03;10.52;;;6.88;;
25341;SDS011;13298;48.792;9.154;2023-04-06T10:08:36;16.52;;;8.45;;
25341;SDS011;13298;48.792;9.154;2023-04-06T10:11:06;13.77;;;8.52;;
25341;SDS011;13298;48.792;9.154;2023-04-06T10:13:33;10.73;;;7.07;;
25341;SDS011;13298;48.792;9.154;2023-04-06T10:16:00;13.93;;;8.05;;
25341;SDS011;13298;48.792;9.154;2023-04-06T10:18:26;11.52;;;7.25;;
25341;SDS011;13298;48.792;9.154;2023-04-06T10:20:56;12.82;;;7.88;;
25341;SDS011;13298;48.792;9.154;2023-04-06T10:23:32;10.30;;;7.47;;
25341;SDS011;13298;48.792;9.154;2023-04-06T10:26:13;11.38;;;7.70;;
25341;SDS011;13298;48.792;9.154;2023-04-06T10:28:41;12.95;;;7.20;;
25341;SDS011;13298;48.792;9.154;2023-04-06T10:31:09;9.25;;;6.25;;
25341;SDS011;13298;48.792;9.154;2023-04-06T10:33:34;12.05;;;8.13;;
25341;SDS011;13298;48.792;9.154;2023-04-06T10:36:13;10.65;;;6.93;;
25341;SDS011;13298;48.792;9.154;2023-04-06T10:38:41;10.63;;;7.13;;
25341;SDS011;13298;48.792;9.154;2023-04-06T10:41:08;13.93;;;7.35;;
25341;SDS011;13298;48.792;9.154;2023-04-06T10:43:36;9.30;;;6.80;;
25341;SDS011;13298;48.792;9.154;2023-04-06T10:46:06;11.82;;;6.97;;
25341;SDS011;13298;48.792;9.154;2023-04-06T10:48:37;14.20;;;7.20;;
25341;SDS011;13298;48.792;9.154;2023-04-06T10:51:07;11.07;;;7.35;;
25341;SDS011;13298;48.792;9.154;2023-04-06T10:53:36;8.93;;;6.45;;
25341;SDS011;13298;48.792;9.154;2023-04-06T10:56:02;10.75;;;6.55;;
25341;SDS011;13298;48.792;9.154;2023-04-06T10:58:30;10.07;;;6.25;;
25341;SDS011;13298;48.792;9.154;2023-04-06T11:00:55;11.70;;;6.28;;
25341;SDS011;13298;48.792;9.154;2023-04-06T11:03:21;11.25;;;6.90;;
25341;SDS011;13298;48.792;9.154;2023-04-06T11:05:48;11.93;;;6.72;;
25341;SDS011;13298;48.792;9.154;2023-04-06T11:08:49;8.73;;;5.80;;
25341;SDS011;13298;48.792;9.154;2023-04-06T11:11:09;10.25;;;6.38;;
25341;SDS011;13298;48.792;9.154;2023-04-06T11:13:52;9.15;;;6.13;;
25341;SDS011;13298;48.792;9.154;2023-04-06T11:16:25;10.20;;;6.70;;
25341;SDS011;13298;48.792;9.154;2023-04-06T11:24:21;10.05;;;6.18;;
25341;SDS011;13298;48.792;9.154;2023-04-06T11:26:56;10.57;;;6.30;;
25341;SDS011;13298;48.792;9.154;2023-04-06T11:29:26;10.32;;;6.07;;
25341;SDS011;13298;48.792;9.154;2023-04-06T11:31:58;11.70;;;5.73;;
25341;SDS011;13298;48.792;9.154;2023-04-06T11:34:27;9.13;;;5.80;;
25341;SDS011;13298;48.792;9.154;2023-04-06T11:36:56;9.27;;;5.20;;
25341;SDS011;13298;48.792;9.154;2023-04-06T11:39:27;10.77;;;6.13;;
25341;SDS011;13298;48.792;9.154;2023-04-06T11:41:56;9.25;;;6.45;;
25341;SDS011;13298;48.792;9.154;2023-04-06T11:44:34;9.85;;;6.20;;
25341;SDS011;13298;48.792;9.154;2023-04-06T11:47:05;9.82;;;6.32;;
25341;SDS011;13298;48.792;9.154;2023-04-06T11:49:36;9.27;;;5.78;;
25341;SDS011;13298;48.792;9.154;2023-04-06T11:52:19;9.07;;;6.38;;
25341;SDS011;13298;48.792;9.154;2023-04-06T11:54:48;8.40;;;5.50;;
25341;SDS011;13298;48.792;9.154;2023-04-06T11:57:16;9.05;;;6.18;;
25341;SDS011;13298;48.792;9.154;2023-04-06T11:59:42;8.18;;;6.65;;
25341;SDS011;13298;48.792;9.154;2023-04-06T12:02:08;8.80;;;5.85;;
25341;SDS011;13298;48.792;9.154;2023-04-06T12:04:35;9.50;;;5.70;;
25341;SDS011;13298;48.792;9.154;2023-04-06T12:07:01;8.48;;;5.53;;
25341;SDS011;13298;48.792;9.154;2023-04-06T12:09:27;14.18;;;6.65;;
25341;SDS011;13298;48.792;9.154;2023-04-06T12:11:52;8.90;;;6.15;;
25341;SDS011;13298;48.792;9.154;2023-04-06T12:14:18;10.02;;;6.47;;
25341;SDS011;13298;48.792;9.154;2023-04-06T12:16:44;9.95;;;5.60;;
25341;SDS011;13298;48.792;9.154;2023-04-06T12:19:10;9.52;;;6.05;;
25341;SDS011;13298;48.792;9.154;2023-04-06T12:21:35;10.65;;;6.00;;
25341;SDS011;13298;48.792;9.154;2023-04-06T12:24:05;9.57;;;5.90;;
25341;SDS011;13298;48.792;9.154;2023-04-06T12:26:31;11.18;;;6.70;;
25341;SDS011;13298;48.792;9.154;2023-04-06T12:29:01;9.88;;;5.65;;
25341;SDS011;13298;48.792;9.154;2023-04-06T12:31:31;9.63;;;6.70;;
25341;SDS011;13298;48.792;9.154;2023-04-06T12:34:00;9.35;;;5.82;;
25341;SDS011;13298;48.792;9.154;2023-04-06T12:36:27;8.23;;;5.88;;
25341;SDS011;13298;48.792;9.154;2023-04-06T12:38:52;9.10;;;5.47;;
25341;SDS011;13298;48.792;9.154;2023-04-06T12:41:18;9.35;;;5.93;;
25341;SDS011;13298;48.792;9.154;2023-04-06T12:43:45;8.25;;;6.05;;
25341;SDS011;13298;48.792;9.154;2023-04-06T12:46:11;8.00;;;5.93;;
25341;SDS011;13298;48.792;9.154;2023-04-06T12:48:37;11.10;;;6.45;;
25341;SDS011;13298;48.792;9.154;2023-04-06T12:51:06;7.75;;;5.40;;
25341;SDS011;13298;48.792;9.154;2023-04-06T12:53:34;10.88;;;6.22;;
25341;SDS011;13298;48.792;9.154;2023-04-06T12:56:00;12.52;;;5.95;;
25341;SDS011;13298;48.792;9.154;2023-04-06T12:58:27;8.23;;;5.45;;
25341;SDS011;13298;48.792;9.154;2023-04-06T13:00:54;7.72;;;4.47;;
25341;SDS011;13298;48.792;9.154;2023-04-06T13:03:21;7.63;;;4.90;;
25341;SDS011;13298;48.792;9.154;2023-04-06T13:05:48;7.80;;;4.68;;
25341;SDS011;13298;48.792;9.154;2023-04-06T13:08:17;8.23;;;5.70;;
25341;SDS011;13298;48.792;9.154;2023-04-06T13:10:44;8.15;;;5.25;;
25341;SDS011;13298;48.792;9.154;2023-04-06T13:13:15;11.90;;;5.10;;
25341;SDS011;13298;48.792;9.154;2023-04-06T13:15:42;9.25;;;6.20;;
25341;SDS011;13298;48.792;9.154;2023-04-06T13:18:08;8.95;;;5.50;;
25341;SDS011;13298;48.792;9.154;2023-04-06T13:20:34;9.77;;;5.93;;
25341;SDS011;13298;48.792;9.154;2023-04-06T13:23:00;13.02;;;5.75;;
25341;SDS011;13298;48.792;9.154;2023-04-06T13:25:26;8.38;;;5.50;;
25341;SDS011;13298;48.792;9.154;2023-04-06T13:27:53;7.40;;;5.45;;
25341;SDS011;13298;48.792;9.154;2023-04-06T13:30:19;9.23;;;5.80;;
25341;SDS011;13298;48.792;9.154;2023-04-06T13:32:45;8.57;;;5.65;;
25341;SDS011;13298;48.792;9.154;2023-04-06T13:35:11;12.68;;;6.30;;
25341;SDS011;13298;48.792;9.154;2023-04-06T13:37:37;8.60;;;5.30;;
25341;SDS011;13298;48.792;9.154;2023-04-06T13:40:03;12.20;;;6.03;;
25341;SDS011;13298;48.792;9.154;2023-04-06T13:42:29;9.07;;;5.55;;
25341;SDS011;13298;48.792;9.154;2023-04-06T13:44:56;7.88;;;5.28;;
25341;SDS011;13298;48.792;9.154;2023-04-06T13:47:22;8.40;;;4.88;;
25341;SDS011;13298;48.792;9.154;2023-04-06T13:49:49;9.68;;;5.55;;
25341;SDS011;13298;48.792;9.154;2023-04-06T13:52:16;9.60;;;5.93;;
25341;SDS011;13298;48.792;9.154;2023-04-06T13:54:43;10.18;;;5.40;;
25341;SDS011;13298;48.792;9.154;2023-04-06T13:57:09;8.65;;;5.68;;
25341;SDS011;13298;48.792;9.154;2023-04-06T13:59:35;7.93;;;5.38;;
25341;SDS011;13298;48.792;9.154;2023-04-06T14:02:04;8.82;;;4.97;;
25341;SDS011;13298;48.792;9.154;2023-04-06T14:06:59;8.43;;;5.47;;
25341;SDS011;13298;48.792;9.154;2023-04-06T14:09:27;7.53;;;5.20;;
25341;SDS011;13298;48.792;9.154;2023-04-06T14:11:54;9.13;;;5.25;;
25341;SDS011;13298;48.792;9.154;2023-04-06T14:14:20;9.15;;;5.97;;
25341;SDS011;13298;48.792;9.154;2023-04-06T14:16:46;6.25;;;4.53;;
25341;SDS011;13298;48.792;9.154;2023-04-06T14:19:13;10.68;;;5.93;;
25341;SDS011;13298;48.792;9.154;2023-04-06T14:21:41;10.35;;;5.68;;
25341;SDS011;13298;48.792;9.154;2023-04-06T14:24:08;8.27;;;5.18;;
25341;SDS011;13298;48.792;9.154;2023-04-06T14:26:34;8.50;;;5.55;;
25341;SDS011;13298;48.792;9.154;2023-04-06T14:29:02;6.85;;;4.88;;
25341;SDS011;13298;48.792;9.154;2023-04-06T14:31:31;7.57;;;4.82;;
25341;SDS011;13298;48.792;9.154;2023-04-06T14:33:57;8.63;;;6.10;;
25341;SDS011;13298;48.792;9.154;2023-04-06T14:36:26;7.85;;;4.85;;
25341;SDS011;13298;48.792;9.154;2023-04-06T14:39:00;9.63;;;5.70;;
25341;SDS011;13298;48.792;9.154;2023-04-06T14:41:30;12.02;;;5.60;;
25341;SDS011;13298;48.792;9.154;2023-04-06T14:44:02;8.18;;;4.93;;
25341;SDS011;13298;48.792;9.154;2023-04-06T14:46:38;6.82;;;4.90;;
25341;SDS011;13298;48.792;9.154;2023-04-06T14:49:03;12.52;;;5.15;;